createdAt,value
2018-01-27T00:01:35.396Z,0.83
2018-01-27T00:04:03.544Z,0.70
2018-01-27T00:06:31.492Z,0.80
2018-01-27T00:08:59.420Z,0.60
2018-01-27T00:11:27.361Z,0.60
2018-01-27T00:13:55.304Z,0.73
2018-01-27T00:16:23.256Z,0.60
2018-01-27T00:18:51.176Z,0.80
2018-01-27T00:21:19.088Z,0.70
2018-01-27T00:23:47.020Z,0.70
2018-01-27T00:26:14.925Z,0.70
2018-01-27T00:28:42.849Z,0.60
2018-01-27T00:31:10.752Z,0.60
2018-01-27T00:33:38.656Z,0.67
2018-01-27T00:36:06.577Z,0.60
2018-01-27T00:38:34.481Z,0.53
2018-01-27T00:41:02.416Z,0.50
2018-01-27T00:43:30.333Z,0.67
2018-01-27T00:45:58.249Z,0.60
2018-01-27T00:48:26.177Z,0.70
2018-01-27T00:50:54.081Z,0.70
2018-01-27T00:53:22.028Z,0.70
2018-01-27T00:55:49.957Z,0.77
2018-01-27T00:58:17.884Z,0.90
2018-01-27T01:00:45.825Z,0.50
2018-01-27T01:03:13.733Z,0.60
2018-01-27T01:05:41.672Z,0.73
2018-01-27T01:08:09.585Z,0.60
2018-01-27T01:10:37.535Z,0.47
2018-01-27T01:13:05.460Z,0.83
2018-01-27T01:15:33.388Z,0.60
2018-01-27T01:18:01.292Z,0.60
2018-01-27T01:20:29.220Z,0.50
2018-01-27T01:22:57.129Z,0.50
2018-01-27T01:25:25.082Z,0.70
2018-01-27T01:27:52.993Z,0.70
2018-01-27T01:30:20.929Z,0.40
2018-01-27T01:32:48.841Z,0.60
2018-01-27T01:35:16.764Z,0.60
2018-01-27T01:37:44.681Z,0.83
2018-01-27T01:40:12.616Z,0.50
2018-01-27T01:42:46.536Z,0.60
2018-01-27T01:45:14.485Z,0.60
2018-01-27T01:47:42.404Z,0.73
2018-01-27T01:50:10.332Z,0.63
2018-01-27T01:52:38.240Z,0.73
2018-01-27T01:55:07.160Z,0.60
2018-01-27T01:57:35.085Z,0.60
2018-01-27T02:00:03.001Z,0.97
2018-01-27T02:02:30.928Z,0.60
2018-01-27T02:04:58.837Z,0.60
2018-01-27T02:07:26.765Z,0.60
2018-01-27T02:09:54.757Z,0.70
2018-01-27T02:12:22.672Z,0.60
2018-01-27T02:14:50.628Z,0.50
2018-01-27T02:17:19.067Z,0.80
2018-01-27T02:19:47.155Z,0.60
2018-01-27T02:22:15.098Z,0.70
2018-01-27T02:24:43.013Z,0.70
2018-01-27T02:27:10.941Z,0.63
2018-01-27T02:29:38.857Z,0.70
2018-01-27T02:32:06.789Z,1.13
2018-01-27T02:34:34.695Z,0.67
2018-01-27T02:37:02.625Z,0.70
2018-01-27T02:39:30.542Z,0.60
2018-01-27T02:44:37.238Z,0.50
2018-01-27T02:47:05.179Z,0.60
2018-01-27T02:49:33.094Z,0.80
2018-01-27T02:52:01.042Z,0.70
2018-01-27T02:54:28.963Z,0.80
2018-01-27T02:56:56.917Z,0.70
2018-01-27T02:59:24.872Z,0.60
2018-01-27T03:01:52.824Z,0.70
2018-01-27T03:04:20.749Z,0.60
2018-01-27T03:06:48.709Z,0.60
2018-01-27T03:09:16.650Z,0.50
2018-01-27T03:11:44.601Z,0.53
2018-01-27T03:14:12.545Z,0.80
2018-01-27T03:16:40.510Z,0.60
2018-01-27T03:19:08.430Z,0.70
2018-01-27T03:21:36.382Z,0.50
2018-01-27T03:24:04.306Z,0.60
2018-01-27T03:26:32.250Z,0.60
2018-01-27T03:29:00.166Z,0.50
2018-01-27T03:31:28.111Z,0.70
2018-01-27T03:33:56.038Z,0.70
2018-01-27T03:36:23.966Z,1.13
2018-01-27T03:38:51.930Z,0.60
2018-01-27T03:41:19.853Z,0.60
2018-01-27T03:43:47.777Z,0.53
2018-01-27T03:46:15.722Z,0.53
2018-01-27T03:48:43.649Z,0.80
2018-01-27T03:51:11.581Z,0.60
2018-01-27T03:53:39.526Z,0.70
2018-01-27T03:56:07.457Z,0.60
2018-01-27T03:58:35.377Z,0.60
2018-01-27T04:01:03.329Z,0.60
2018-01-27T04:03:31.255Z,1.30
2018-01-27T04:05:59.197Z,0.77
2018-01-27T04:08:27.150Z,0.70
2018-01-27T04:10:55.125Z,0.70
2018-01-27T04:13:23.049Z,0.70
2018-01-27T04:15:50.989Z,0.60
2018-01-27T04:18:18.912Z,0.70
2018-01-27T04:20:46.838Z,0.80
2018-01-27T04:23:14.802Z,0.60
2018-01-27T04:25:42.741Z,0.57
2018-01-27T04:28:10.657Z,0.70
2018-01-27T04:30:38.613Z,0.73
2018-01-27T04:33:06.542Z,0.60
2018-01-27T04:35:34.464Z,0.80
2018-01-27T04:38:02.414Z,0.70
2018-01-27T04:40:30.340Z,0.50
2018-01-27T04:42:58.261Z,0.70
2018-01-27T04:45:26.226Z,0.60
2018-01-27T04:47:54.149Z,0.73
2018-01-27T04:50:22.074Z,0.60
2018-01-27T04:52:50.034Z,0.90
2018-01-27T04:55:17.953Z,2.07
2018-01-27T04:57:45.874Z,0.77
2018-01-27T05:00:13.821Z,0.73
2018-01-27T05:02:41.742Z,0.50
2018-01-27T05:05:09.665Z,0.80
2018-01-27T05:07:37.610Z,0.60
2018-01-27T05:10:05.530Z,0.60
2018-01-27T05:12:33.454Z,0.60
2018-01-27T05:15:01.407Z,0.50
2018-01-27T05:17:29.328Z,0.60
2018-01-27T05:19:57.249Z,0.60
2018-01-27T05:22:25.197Z,0.57
2018-01-27T05:24:53.117Z,0.70
2018-01-27T05:27:21.058Z,0.57
2018-01-27T05:29:49.997Z,0.70
2018-01-27T05:32:17.923Z,0.80
2018-01-27T05:34:45.883Z,0.77
2018-01-27T05:37:13.843Z,0.50
2018-01-27T05:39:41.773Z,0.60
2018-01-27T05:42:09.693Z,0.70
2018-01-27T05:44:37.628Z,0.60
2018-01-27T05:47:05.545Z,0.90
2018-01-27T05:49:33.470Z,0.70
2018-01-27T05:52:01.409Z,0.63
2018-01-27T05:54:29.330Z,0.80
2018-01-27T05:56:57.261Z,0.70
2018-01-27T05:59:25.241Z,0.50
2018-01-27T06:01:53.158Z,0.77
2018-01-27T06:04:21.081Z,0.70
2018-01-27T06:06:49.027Z,0.90
2018-01-27T06:09:16.957Z,0.70
2018-01-27T06:11:44.906Z,0.50
2018-01-27T06:14:12.862Z,0.70
2018-01-27T06:16:40.780Z,0.80
2018-01-27T06:19:08.729Z,0.70
2018-01-27T06:21:36.701Z,0.57
2018-01-27T06:24:04.654Z,0.57
2018-01-27T06:26:32.601Z,0.67
2018-01-27T06:29:00.561Z,0.70
2018-01-27T06:31:28.487Z,0.70
2018-01-27T06:33:56.401Z,0.70
2018-01-27T06:36:24.338Z,0.60
2018-01-27T06:38:52.262Z,1.07
2018-01-27T06:41:20.177Z,0.60
2018-01-27T06:43:48.121Z,0.67
2018-01-27T06:46:16.073Z,0.57
2018-01-27T06:48:43.990Z,0.77
2018-01-27T06:51:11.930Z,0.70
2018-01-27T06:53:39.857Z,0.70
2018-01-27T06:56:07.777Z,0.90
2018-01-27T06:58:35.722Z,0.88
2018-01-27T07:01:03.667Z,0.77
2018-01-27T07:03:31.601Z,0.80
2018-01-27T07:05:59.542Z,0.93
2018-01-27T07:08:27.465Z,0.90
2018-01-27T07:10:55.395Z,0.73
2018-01-27T07:13:24.569Z,1.37
2018-01-27T07:15:52.494Z,1.43
2018-01-27T07:18:20.424Z,0.77
2018-01-27T07:20:48.409Z,1.10
2018-01-27T07:23:16.326Z,0.80
2018-01-27T07:25:44.265Z,0.90
2018-01-27T07:28:12.220Z,0.80
2018-01-27T07:30:40.154Z,1.40
2018-01-27T07:33:08.113Z,0.87
2018-01-27T07:35:36.077Z,0.90
2018-01-27T07:38:03.997Z,0.80
2018-01-27T07:40:31.921Z,0.80
2018-01-27T07:42:59.853Z,0.83
2018-01-27T07:45:27.778Z,0.70
2018-01-27T07:47:55.727Z,1.00
2018-01-27T07:50:23.666Z,0.87
2018-01-27T07:52:51.589Z,0.70
2018-01-27T07:55:19.526Z,0.90
2018-01-27T07:57:47.470Z,1.10
2018-01-27T08:00:15.414Z,0.90
2018-01-27T08:02:43.333Z,0.90
2018-01-27T08:05:11.273Z,1.20
2018-01-27T08:07:39.210Z,1.10
2018-01-27T08:10:07.142Z,1.00
2018-01-27T08:12:35.088Z,0.80
2018-01-27T08:15:03.009Z,1.00
2018-01-27T08:17:31.173Z,1.03
2018-01-27T08:19:59.110Z,1.93
2018-01-27T08:22:27.026Z,10.90
2018-01-27T08:24:54.955Z,9.80
2018-01-27T08:27:23.037Z,10.43
2018-01-27T08:29:51.010Z,11.57
2018-01-27T08:32:18.933Z,13.60
2018-01-27T08:34:46.885Z,10.00
2018-01-27T08:37:14.818Z,7.60
2018-01-27T08:39:42.741Z,7.37
2018-01-27T08:42:10.699Z,9.63
2018-01-27T08:44:38.661Z,8.77
2018-01-27T08:47:06.583Z,6.23
2018-01-27T08:49:35.526Z,7.37
2018-01-27T08:52:03.471Z,10.17
2018-01-27T08:54:31.406Z,5.57
2018-01-27T08:56:59.352Z,6.80
2018-01-27T08:59:27.278Z,4.97
2018-01-27T09:01:55.210Z,5.83
2018-01-27T09:04:23.169Z,5.30
2018-01-27T09:06:51.106Z,7.80
2018-01-27T09:09:19.037Z,5.17
2018-01-27T09:11:47.010Z,5.27
2018-01-27T09:14:14.937Z,5.77
2018-01-27T09:16:42.865Z,4.20
2018-01-27T09:19:10.801Z,3.83
2018-01-27T09:21:38.721Z,4.73
2018-01-27T09:24:06.665Z,5.07
2018-01-27T09:26:34.633Z,5.57
2018-01-27T09:29:02.554Z,7.67
2018-01-27T09:31:30.477Z,8.23
2018-01-27T09:33:58.413Z,7.90
2018-01-27T09:36:26.338Z,9.20
2018-01-27T09:38:54.265Z,6.37
2018-01-27T09:41:22.214Z,5.03
2018-01-27T09:43:50.141Z,5.57
2018-01-27T09:46:18.113Z,4.83
2018-01-27T09:48:46.063Z,4.53
2018-01-27T09:51:13.990Z,5.03
2018-01-27T09:53:41.938Z,5.13
2018-01-27T09:56:09.878Z,4.83
2018-01-27T09:58:37.793Z,3.93
2018-01-27T10:01:05.712Z,4.00
2018-01-27T10:03:33.657Z,4.80
2018-01-27T10:06:01.809Z,3.90
2018-01-27T10:08:29.733Z,3.00
2018-01-27T10:10:58.502Z,4.67
2018-01-27T10:13:26.425Z,7.17
2018-01-27T10:15:54.640Z,7.30
2018-01-27T10:18:22.602Z,22.45
2018-01-27T10:20:50.542Z,12.73
2018-01-27T10:23:18.575Z,11.57
2018-01-27T10:25:46.548Z,13.53
2018-01-27T10:28:14.565Z,22.70
2018-01-27T10:30:42.546Z,5.27
2018-01-27T10:33:10.494Z,8.53
2018-01-27T10:35:38.426Z,6.13
2018-01-27T10:38:06.350Z,13.93
2018-01-27T10:40:34.291Z,15.37
2018-01-27T10:43:02.235Z,11.23
2018-01-27T10:45:30.153Z,11.95
2018-01-27T10:47:58.277Z,15.93
2018-01-27T10:50:26.201Z,5.73
2018-01-27T10:52:54.447Z,13.40
2018-01-27T10:55:22.601Z,21.07
2018-01-27T10:57:50.621Z,8.57
2018-01-27T11:00:18.770Z,13.07
2018-01-27T11:02:46.710Z,10.70
2018-01-27T11:05:15.087Z,8.00
2018-01-27T11:07:43.278Z,10.97
2018-01-27T11:10:15.390Z,15.30
2018-01-27T11:12:43.334Z,8.60
2018-01-27T11:15:11.262Z,18.23
2018-01-27T11:17:39.269Z,15.20
2018-01-27T11:20:07.205Z,10.00
2018-01-27T11:22:35.137Z,16.70
2018-01-27T11:25:03.134Z,6.67
2018-01-27T11:27:31.098Z,11.57
2018-01-27T11:29:59.141Z,9.53
2018-01-27T11:32:27.133Z,7.60
2018-01-27T11:34:55.289Z,8.87
2018-01-27T11:37:23.250Z,20.03
2018-01-27T11:39:51.370Z,9.17
2018-01-27T11:42:19.306Z,6.53
2018-01-27T11:44:47.286Z,9.07
2018-01-27T11:47:15.273Z,8.63
2018-01-27T11:49:43.205Z,10.17
2018-01-27T11:52:11.174Z,11.23
2018-01-27T11:54:39.201Z,9.47
2018-01-27T11:59:57.453Z,4.90
2018-01-27T12:02:25.527Z,5.57
2018-01-27T12:04:57.345Z,8.07
2018-01-27T12:07:25.261Z,7.97
2018-01-27T12:09:55.238Z,10.63
2018-01-27T12:12:24.302Z,5.50
2018-01-27T12:14:53.257Z,4.53
2018-01-27T12:17:22.322Z,5.60
2018-01-27T12:19:51.483Z,3.23
2018-01-27T12:22:20.490Z,9.20
2018-01-27T12:24:54.490Z,4.20
2018-01-27T12:27:23.514Z,7.40
2018-01-27T12:29:51.711Z,4.03
2018-01-27T12:32:19.712Z,7.90
2018-01-27T12:34:47.649Z,5.87
2018-01-27T12:37:15.586Z,4.70
2018-01-27T12:39:43.656Z,4.90
2018-01-27T12:42:12.584Z,6.13
2018-01-27T12:44:41.557Z,3.13
2018-01-27T12:47:09.617Z,7.57
2018-01-27T12:49:37.542Z,5.07
2018-01-27T12:52:05.461Z,4.83
2018-01-27T12:54:33.409Z,4.80
2018-01-27T12:57:01.346Z,3.97
2018-01-27T12:59:29.261Z,2.43
2018-01-27T13:02:02.281Z,3.77
2018-01-27T13:04:30.205Z,2.30
2018-01-27T13:07:02.001Z,3.33
2018-01-27T13:09:29.949Z,3.60
2018-01-27T13:12:01.795Z,2.60
2018-01-27T13:14:29.705Z,2.70
2018-01-27T13:16:59.738Z,2.67
2018-01-27T13:19:27.752Z,3.07
2018-01-27T13:21:55.811Z,2.47
2018-01-27T13:24:25.809Z,2.27
2018-01-27T13:27:04.906Z,2.47
2018-01-27T13:29:36.849Z,2.87
2018-01-27T13:32:08.842Z,4.83
2018-01-27T13:34:37.025Z,5.67
2018-01-27T13:37:05.051Z,2.67
2018-01-27T13:39:33.044Z,4.23
2018-01-27T13:42:02.149Z,4.67
2018-01-27T13:44:31.097Z,3.20
2018-01-27T13:46:59.071Z,3.07
2018-01-27T13:49:27.117Z,2.43
2018-01-27T13:51:56.232Z,1.90
2018-01-27T13:54:25.208Z,4.23
2018-01-27T13:56:53.308Z,3.53
2018-01-27T13:59:22.321Z,2.80
2018-01-27T14:01:50.356Z,6.50
2018-01-27T14:04:18.469Z,2.83
2018-01-27T14:06:46.493Z,3.03
2018-01-27T14:09:14.449Z,2.67
2018-01-27T14:11:42.447Z,1.87
2018-01-27T14:14:10.383Z,1.87
2018-01-27T14:16:38.345Z,3.10
2018-01-27T14:19:06.289Z,3.93
2018-01-27T14:21:34.209Z,2.67
2018-01-27T14:24:02.307Z,4.57
2018-01-27T14:26:30.301Z,5.73
2018-01-27T14:29:00.245Z,1.90
2018-01-27T14:31:30.249Z,3.87
2018-01-27T14:33:59.273Z,2.20
2018-01-27T14:36:38.142Z,2.97
2018-01-27T14:39:08.141Z,2.70
2018-01-27T14:41:38.269Z,2.47
2018-01-27T14:44:06.405Z,1.97
2018-01-27T14:46:34.447Z,2.23
2018-01-27T14:49:03.493Z,3.47
2018-01-27T14:51:32.593Z,2.00
2018-01-27T14:54:00.533Z,1.80
2018-01-27T14:56:28.614Z,1.73
2018-01-27T14:59:00.490Z,3.10
2018-01-27T15:01:28.621Z,1.63
2018-01-27T15:03:56.686Z,1.80
2018-01-27T15:06:30.445Z,1.80
2018-01-27T15:08:58.442Z,1.50
2018-01-27T15:14:27.073Z,2.77
2018-01-27T15:16:55.071Z,2.03
2018-01-27T15:19:23.074Z,3.93
2018-01-27T15:21:51.058Z,1.87
2018-01-27T15:24:19.057Z,2.40
2018-01-27T15:26:47.050Z,1.57
2018-01-27T15:29:15.053Z,2.10
2018-01-27T15:31:43.028Z,3.10
2018-01-27T15:34:11.017Z,2.40
2018-01-27T15:36:38.996Z,2.17
2018-01-27T15:39:07.011Z,1.60
2018-01-27T15:41:34.986Z,1.67
2018-01-27T15:44:03.089Z,1.57
2018-01-27T15:46:31.082Z,2.33
2018-01-27T15:48:59.090Z,2.37
2018-01-27T15:51:27.057Z,3.80
2018-01-27T15:53:55.058Z,1.50
2018-01-27T15:56:23.050Z,1.40
2018-01-27T15:58:51.049Z,1.80
2018-01-27T16:01:19.030Z,2.70
2018-01-27T16:03:47.030Z,1.83
2018-01-27T16:06:14.998Z,2.00
2018-01-27T16:08:43.010Z,1.80
2018-01-27T16:11:11.009Z,1.50
2018-01-27T16:13:51.466Z,3.30
2018-01-27T16:16:19.438Z,1.50
2018-01-27T16:18:47.432Z,2.27
2018-01-27T16:21:16.445Z,1.93
2018-01-27T16:23:44.445Z,1.60
2018-01-27T16:26:12.417Z,3.23
2018-01-27T16:28:40.410Z,1.60
2018-01-27T16:31:09.443Z,2.00
2018-01-27T16:33:37.494Z,1.60
2018-01-27T16:36:05.480Z,2.13
2018-01-27T16:38:33.474Z,1.63
2018-01-27T16:41:01.470Z,1.30
2018-01-27T16:43:29.499Z,2.37
2018-01-27T16:45:57.469Z,2.37
2018-01-27T16:48:25.474Z,2.80
2018-01-27T16:50:53.458Z,1.87
2018-01-27T16:53:21.493Z,1.97
2018-01-27T16:55:49.466Z,3.10
2018-01-27T16:58:17.472Z,1.73
2018-01-27T17:00:45.447Z,2.37
2018-01-27T17:03:13.570Z,1.70
2018-01-27T17:05:41.550Z,1.97
2018-01-27T17:08:09.533Z,2.17
2018-01-27T17:10:37.562Z,1.50
2018-01-27T17:13:16.486Z,2.67
2018-01-27T17:15:44.478Z,1.60
2018-01-27T17:18:12.494Z,3.30
2018-01-27T17:20:40.460Z,1.80
2018-01-27T17:23:08.434Z,3.67
2018-01-27T17:25:36.429Z,2.50
2018-01-27T17:28:04.513Z,2.10
2018-01-27T17:30:32.519Z,1.90
2018-01-27T17:33:00.494Z,1.80
2018-01-27T17:35:28.513Z,3.00
2018-01-27T17:37:56.481Z,3.90
2018-01-27T17:40:24.478Z,1.83
2018-01-27T17:42:52.455Z,3.07
2018-01-27T17:45:20.453Z,2.67
2018-01-27T17:47:48.412Z,5.13
2018-01-27T17:50:16.558Z,2.23
2018-01-27T17:52:44.534Z,2.27
2018-01-27T17:55:12.541Z,2.43
2018-01-27T17:57:40.537Z,3.17
2018-01-27T18:00:08.557Z,2.63
2018-01-27T18:02:36.529Z,2.43
2018-01-27T18:05:04.569Z,2.40
2018-01-27T18:07:32.525Z,3.30
2018-01-27T18:10:00.557Z,3.27
2018-01-27T18:12:40.661Z,2.57
2018-01-27T18:15:08.669Z,3.30
2018-01-27T18:17:36.646Z,2.10
2018-01-27T18:20:04.788Z,2.27
2018-01-27T18:22:32.770Z,2.47
2018-01-27T18:25:00.798Z,2.40
2018-01-27T18:27:28.783Z,2.30
2018-01-27T18:29:56.790Z,2.47
2018-01-27T18:32:24.768Z,2.20
2018-01-27T18:34:52.770Z,2.40
2018-01-27T18:37:20.742Z,4.10
2018-01-27T18:39:48.757Z,2.80
2018-01-27T18:42:16.763Z,1.97
2018-01-27T18:44:44.762Z,1.90
2018-01-27T18:47:12.730Z,2.90
2018-01-27T18:49:40.734Z,2.13
2018-01-27T18:52:08.709Z,2.07
2018-01-27T18:54:36.705Z,2.27
2018-01-27T18:57:04.685Z,2.17
2018-01-27T18:59:32.698Z,2.40
2018-01-27T19:02:00.625Z,2.40
2018-01-27T19:04:28.580Z,2.53
2018-01-27T19:06:56.505Z,3.03
2018-01-27T19:09:24.461Z,3.93
2018-01-27T19:12:05.193Z,3.57
2018-01-27T19:14:33.142Z,2.13
2018-01-27T19:17:01.062Z,2.20
2018-01-27T19:19:28.996Z,2.40
2018-01-27T19:21:56.922Z,2.57
2018-01-27T19:24:24.893Z,2.40
2018-01-27T19:26:52.814Z,2.50
2018-01-27T19:29:20.791Z,2.67
2018-01-27T19:31:48.706Z,2.20
2018-01-27T19:34:16.738Z,2.63
2018-01-27T19:36:44.657Z,4.43
2018-01-27T19:39:12.585Z,2.30
2018-01-27T19:41:40.504Z,1.83
2018-01-27T19:44:08.445Z,2.30
2018-01-27T19:46:36.393Z,2.20
2018-01-27T19:49:04.361Z,2.30
2018-01-27T19:51:32.345Z,2.30
2018-01-27T19:54:00.261Z,2.37
2018-01-27T19:56:28.417Z,2.43
2018-01-27T19:58:56.341Z,2.03
2018-01-27T20:01:24.294Z,2.37
2018-01-27T20:03:52.213Z,2.20
2018-01-27T20:06:20.153Z,2.00
2018-01-27T20:08:48.073Z,2.13
2018-01-27T20:11:16.965Z,2.10
2018-01-27T20:14:02.250Z,2.27
2018-01-27T20:16:30.193Z,1.97
2018-01-27T20:18:58.117Z,2.27
2018-01-27T20:21:26.074Z,2.27
2018-01-27T20:23:53.985Z,2.60
2018-01-27T20:26:21.934Z,2.30
2018-01-27T20:28:49.874Z,1.90
2018-01-27T20:31:17.853Z,2.23
2018-01-27T20:33:45.961Z,1.77
2018-01-27T20:36:13.901Z,1.90
2018-01-27T20:38:41.851Z,2.53
2018-01-27T20:41:09.814Z,2.23
2018-01-27T20:43:37.733Z,1.57
2018-01-27T20:46:05.776Z,1.87
2018-01-27T20:48:33.720Z,2.20
2018-01-27T20:51:01.698Z,2.00
2018-01-27T20:53:29.653Z,2.00
2018-01-27T20:55:57.621Z,2.33
2018-01-27T20:58:25.570Z,2.40
2018-01-27T21:00:53.519Z,2.33
2018-01-27T21:03:21.433Z,1.90
2018-01-27T21:05:49.367Z,2.63
2018-01-27T21:08:17.283Z,2.13
2018-01-27T21:10:45.242Z,1.80
2018-01-27T21:13:26.845Z,2.27
2018-01-27T21:15:54.809Z,2.17
2018-01-27T21:18:22.733Z,2.53
2018-01-27T21:20:50.677Z,2.47
2018-01-27T21:23:18.622Z,2.63
2018-01-27T21:25:47.177Z,2.00
2018-01-27T21:28:15.124Z,2.10
2018-01-27T21:30:43.077Z,2.53
2018-01-27T21:33:10.997Z,2.30
2018-01-27T21:35:38.938Z,1.87
2018-01-27T21:38:06.937Z,1.70
2018-01-27T21:40:34.889Z,2.40
2018-01-27T21:43:02.814Z,2.20
2018-01-27T21:45:30.765Z,2.87
2018-01-27T21:47:58.685Z,2.30
2018-01-27T21:50:26.630Z,2.20
2018-01-27T21:52:54.549Z,2.47
2018-01-27T21:55:22.498Z,2.10
2018-01-27T21:57:50.435Z,2.73
2018-01-27T22:00:18.385Z,2.10
2018-01-27T22:02:46.502Z,2.20
2018-01-27T22:05:14.441Z,2.30
2018-01-27T22:07:42.357Z,2.67
2018-01-27T22:10:10.288Z,1.90
2018-01-27T22:12:51.461Z,2.20
2018-01-27T22:15:19.400Z,2.10
2018-01-27T22:17:47.330Z,2.00
2018-01-27T22:20:15.281Z,2.00
2018-01-27T22:22:43.228Z,2.30
2018-01-27T22:25:11.159Z,1.83
2018-01-27T22:27:39.086Z,2.03
2018-01-27T22:30:07.126Z,2.10
2018-01-27T22:32:35.046Z,1.90
2018-01-27T22:35:02.981Z,2.13
2018-01-27T22:37:30.897Z,2.10
2018-01-27T22:39:58.828Z,2.43
2018-01-27T22:42:26.761Z,3.40
2018-01-27T22:44:54.705Z,1.90
2018-01-27T22:47:22.629Z,2.40
2018-01-27T22:49:50.573Z,1.77
2018-01-27T22:52:18.495Z,2.17
2018-01-27T22:54:46.658Z,2.17
2018-01-27T22:57:14.597Z,1.93
2018-01-27T22:59:42.534Z,1.90
2018-01-27T23:02:10.458Z,2.27
2018-01-27T23:04:38.441Z,2.00
2018-01-27T23:07:06.437Z,2.03
2018-01-27T23:09:34.385Z,2.43
2018-01-27T23:12:16.829Z,2.27
2018-01-27T23:14:44.777Z,2.50
2018-01-27T23:17:12.713Z,2.30
2018-01-27T23:19:40.673Z,2.17
2018-01-27T23:22:08.593Z,1.87
2018-01-27T23:24:36.533Z,2.00
2018-01-27T23:27:04.461Z,2.10
2018-01-27T23:29:32.393Z,1.87
2018-01-27T23:32:00.309Z,2.10
2018-01-27T23:34:28.245Z,1.97
2018-01-27T23:36:56.165Z,2.40
2018-01-27T23:39:24.097Z,2.27
2018-01-27T23:41:52.025Z,2.10
2018-01-27T23:44:19.957Z,1.80
2018-01-27T23:46:47.938Z,2.20
2018-01-27T23:49:16.058Z,2.10
2018-01-27T23:51:44.001Z,2.20
2018-01-27T23:54:11.937Z,2.20
2018-01-27T23:56:39.869Z,2.17
2018-01-27T23:59:07.781Z,2.07
